Time,TemperatureF,DewpointF,PressureIn,WindDirection,WindDirectionDegrees,WindSpeedMPH,WindSpeedGustMPH,Humidity,HourlyPrecipIn,Conditions,Clouds,dailyrainin,SoftwareType,DateUTC
2013-08-06 00:00:00,45.0,43.0,-100.00,SW,234,6.0,21.0,91,-99.99,,,-99.99,,2013-08-06 06:00:00,
2013-08-06 00:43:00,45.0,43.0,-100.00,SW,234,6.0,21.0,91,-99.99,,,-99.99,,2013-08-06 06:43:00,
2013-08-06 00:52:00,45.0,43.0,-100.00,SW,234,6.0,21.0,91,-99.99,,,-99.99,,2013-08-06 06:52:00,
2013-08-06 01:00:00,45.0,42.0,-100.00,NNW,341,3.0,10.0,91,-99.99,,,-99.99,,2013-08-06 07:00:00,
2013-08-06 01:44:00,45.0,42.0,-100.00,NNW,341,3.0,10.0,91,-99.99,,,-99.99,,2013-08-06 07:44:00,
2013-08-06 01:53:00,45.0,42.0,-100.00,NNW,341,3.0,10.0,91,-99.99,,,-99.99,,2013-08-06 07:53:00,
2013-08-06 02:00:00,45.0,42.0,-100.00,NNE,12,3.0,8.0,87,-99.99,,,-99.99,,2013-08-06 08:00:00,
2013-08-06 02:43:00,45.0,42.0,-100.00,NNE,12,3.0,8.0,87,-99.99,,,-99.99,,2013-08-06 08:43:00,
2013-08-06 02:52:00,45.0,42.0,-100.00,NNE,12,3.0,8.0,87,-99.99,,,-99.99,,2013-08-06 08:52:00,
2013-08-06 03:00:00,44.0,42.0,-100.00,WSW,245,2.0,5.0,94,-99.99,,,-99.99,,2013-08-06 09:00:00,
2013-08-06 03:43:00,44.0,42.0,-100.00,WSW,245,2.0,5.0,94,-99.99,,,-99.99,,2013-08-06 09:43:00,
2013-08-06 03:52:00,44.0,42.0,-100.00,WSW,245,2.0,5.0,94,-99.99,,,-99.99,,2013-08-06 09:52:00,
2013-08-06 04:00:00,44.0,42.0,-100.00,West,269,2.0,4.0,90,-99.99,,,-99.99,,2013-08-06 10:00:00,
2013-08-06 04:43:00,44.0,42.0,-100.00,West,269,2.0,4.0,90,-99.99,,,-99.99,,2013-08-06 10:43:00,
2013-08-06 04:53:00,44.0,42.0,-100.00,West,269,2.0,4.0,90,-99.99,,,-99.99,,2013-08-06 10:53:00,
2013-08-06 05:00:00,44.0,41.0,-100.00,West,264,2.0,6.0,87,-99.99,,,-99.99,,2013-08-06 11:00:00,
2013-08-06 05:43:00,44.0,41.0,-100.00,West,264,2.0,6.0,87,-99.99,,,-99.99,,2013-08-06 11:43:00,
2013-08-06 05:53:00,44.0,41.0,-100.00,West,264,2.0,6.0,87,-99.99,,,-99.99,,2013-08-06 11:53:00,
2013-08-06 06:00:00,45.0,40.0,-100.00,West,259,8.0,13.0,81,-99.99,,,-99.99,,2013-08-06 12:00:00,
2013-08-06 06:43:00,45.0,40.0,-100.00,West,259,8.0,13.0,81,-99.99,,,-99.99,,2013-08-06 12:43:00,
2013-08-06 06:52:00,45.0,40.0,-100.00,West,259,8.0,13.0,81,-99.99,,,-99.99,,2013-08-06 12:52:00,
2013-08-06 07:00:00,45.0,41.0,-100.00,North,3,3.0,10.0,84,-99.99,,,-99.99,,2013-08-06 13:00:00,
2013-08-06 07:42:00,45.0,41.0,-100.00,North,3,3.0,10.0,84,-99.99,,,-99.99,,2013-08-06 13:42:00,
2013-08-06 07:53:00,45.0,41.0,-100.00,North,3,3.0,10.0,84,-99.99,,,-99.99,,2013-08-06 13:53:00,
2013-08-06 08:00:00,46.0,42.0,-100.00,NE,36,2.0,4.0,86,-99.99,,,-99.99,,2013-08-06 14:00:00,
2013-08-06 08:42:00,46.0,42.0,-100.00,NE,36,2.0,4.0,86,-99.99,,,-99.99,,2013-08-06 14:42:00,
2013-08-06 08:53:00,46.0,42.0,-100.00,NE,36,2.0,4.0,86,-99.99,,,-99.99,,2013-08-06 14:53:00,
2013-08-06 09:00:00,48.0,45.0,-100.00,ENE,64,2.0,4.0,88,-99.99,,,-99.99,,2013-08-06 15:00:00,
2013-08-06 09:44:00,48.0,45.0,-100.00,ENE,64,2.0,4.0,88,-99.99,,,-99.99,,2013-08-06 15:44:00,
2013-08-06 09:52:00,48.0,45.0,-100.00,ENE,64,2.0,4.0,88,-99.99,,,-99.99,,2013-08-06 15:52:00,
2013-08-06 10:00:00,50.0,46.0,-100.00,SE,128,1.0,3.0,85,-99.99,,,-99.99,,2013-08-06 16:00:00,
2013-08-06 10:43:00,50.0,46.0,-100.00,SE,128,1.0,3.0,85,-99.99,,,-99.99,,2013-08-06 16:43:00,
2013-08-06 10:52:00,50.0,46.0,-100.00,SE,128,1.0,3.0,85,-99.99,,,-99.99,,2013-08-06 16:52:00,
2013-08-06 12:00:00,57.0,45.0,-100.00,East,80,3.0,9.0,65,-99.99,,,-99.99,,2013-08-06 18:00:00,
2013-08-06 12:44:00,57.0,45.0,-100.00,East,80,3.0,9.0,65,-99.99,,,-99.99,,2013-08-06 18:44:00,
2013-08-06 12:52:00,57.0,45.0,-100.00,East,80,3.0,9.0,65,-99.99,,,-99.99,,2013-08-06 18:52:00,
2013-08-06 13:00:00,59.0,43.0,-100.00,East,96,5.0,15.0,54,-99.99,,,-99.99,,2013-08-06 19:00:00,
2013-08-06 13:42:00,59.0,43.0,-100.00,East,96,5.0,15.0,54,-99.99,,,-99.99,,2013-08-06 19:42:00,
2013-08-06 13:52:00,59.0,43.0,-100.00,East,96,5.0,15.0,54,-99.99,,,-99.99,,2013-08-06 19:52:00,
2013-08-06 16:00:00,49.0,45.0,-100.00,ENE,61,2.0,6.0,88,-99.99,,,-99.99,,2013-08-06 22:00:00,
2013-08-06 16:43:00,49.0,45.0,-100.00,ENE,61,2.0,6.0,88,-99.99,,,-99.99,,2013-08-06 22:43:00,
2013-08-06 16:53:00,49.0,45.0,-100.00,ENE,61,2.0,6.0,88,-99.99,,,-99.99,,2013-08-06 22:53:00,
2013-08-06 17:00:00,50.0,45.0,-100.00,NE,50,4.0,13.0,82,-99.99,,,-99.99,,2013-08-06 23:00:00,
2013-08-06 17:43:00,50.0,45.0,-100.00,NE,50,4.0,13.0,82,-99.99,,,-99.99,,2013-08-06 23:43:00,
2013-08-06 17:52:00,50.0,45.0,-100.00,NE,50,4.0,13.0,82,-99.99,,,-99.99,,2013-08-06 23:52:00,
2013-08-06 18:00:00,52.0,43.0,-100.00,NNE,28,5.0,13.0,71,-99.99,,,-99.99,,2013-08-07 00:00:00,
2013-08-06 18:43:00,52.0,43.0,-100.00,NNE,28,5.0,13.0,71,-99.99,,,-99.99,,2013-08-07 00:43:00,
2013-08-06 18:52:00,52.0,43.0,-100.00,NNE,28,5.0,13.0,71,-99.99,,,-99.99,,2013-08-07 00:52:00,
2013-08-06 19:00:00,50.0,43.0,-100.00,NE,34,5.0,10.0,76,-99.99,,,-99.99,,2013-08-07 01:00:00,
2013-08-06 19:43:00,50.0,43.0,-100.00,NE,34,5.0,10.0,76,-99.99,,,-99.99,,2013-08-07 01:43:00,
2013-08-06 19:52:00,50.0,43.0,-100.00,NE,34,5.0,10.0,76,-99.99,,,-99.99,,2013-08-07 01:52:00,
2013-08-06 20:00:00,49.0,42.0,-100.00,NNE,29,7.0,14.0,76,-99.99,,,-99.99,,2013-08-07 02:00:00,
2013-08-06 20:43:00,49.0,42.0,-100.00,NNE,29,7.0,14.0,76,-99.99,,,-99.99,,2013-08-07 02:43:00,
2013-08-06 20:53:00,49.0,42.0,-100.00,NNE,29,7.0,14.0,76,-99.99,,,-99.99,,2013-08-07 02:53:00,
2013-08-06 21:00:00,49.0,41.0,-100.00,NNE,15,8.0,19.0,75,-99.99,,,-99.99,,2013-08-07 03:00:00,
2013-08-06 21:43:00,49.0,41.0,-100.00,NNE,15,8.0,19.0,75,-99.99,,,-99.99,,2013-08-07 03:43:00,
2013-08-06 21:52:00,49.0,41.0,-100.00,NNE,15,8.0,19.0,75,-99.99,,,-99.99,,2013-08-07 03:52:00,
2013-08-06 22:00:00,47.0,41.0,-100.00,NE,47,5.0,11.0,78,-99.99,,,-99.99,,2013-08-07 04:00:00,
2013-08-06 22:43:00,47.0,41.0,-100.00,NE,47,5.0,11.0,78,-99.99,,,-99.99,,2013-08-07 04:43:00,
2013-08-06 22:52:00,47.0,41.0,-100.00,NE,47,5.0,11.0,78,-99.99,,,-99.99,,2013-08-07 04:52:00,
2013-08-06 23:00:00,46.0,42.0,-100.00,NE,52,3.0,7.0,84,-99.99,,,-99.99,,2013-08-07 05:00:00,
2013-08-06 23:43:00,46.0,42.0,-100.00,NE,52,3.0,7.0,84,-99.99,,,-99.99,,2013-08-07 05:43:00,
2013-08-06 23:52:00,46.0,42.0,-100.00,NE,52,3.0,7.0,84,-99.99,,,-99.99,,2013-08-07 05:52:00,